sensor_id;sensor_type;location;lat;lon;timestamp;pressure;altitude;pressure_sealevel;temperature;humidity
20942;BME280;10630;53.734;10.282;2023-03-15T00:00:10;100227.75;;;7.05;70.18
20942;BME280;10630;53.734;10.282;2023-03-15T00:02:39;100231.22;;;8.26;67.83
20942;BME280;10630;53.734;10.282;2023-03-15T00:05:09;100238.63;;;8.05;68.55
20942;BME280;10630;53.734;10.282;2023-03-15T00:07:38;100244.06;;;7.87;66.68
20942;BME280;10630;53.734;10.282;2023-03-15T00:10:05;100253.78;;;7.79;67.39
20942;BME280;10630;53.734;10.282;2023-03-15T00:12:32;100253.19;;;7.93;66.33
20942;BME280;10630;53.734;10.282;2023-03-15T00:14:59;100254.13;;;7.84;66.96
20942;BME280;10630;53.734;10.282;2023-03-15T00:17:29;100257.88;;;7.65;68.22
20942;BME280;10630;53.734;10.282;2023-03-15T00:20:01;100263.28;;;7.55;69.23
20942;BME280;10630;53.734;10.282;2023-03-15T00:22:29;100270.16;;;7.74;67.80
20942;BME280;10630;53.734;10.282;2023-03-15T00:24:56;100278.72;;;7.59;66.46
20942;BME280;10630;53.734;10.282;2023-03-15T00:27:23;100288.00;;;7.11;68.35
20942;BME280;10630;53.734;10.282;2023-03-15T00:29:51;100292.44;;;7.28;69.14
20942;BME280;10630;53.734;10.282;2023-03-15T00:32:18;100299.22;;;7.05;68.74
20942;BME280;10630;53.734;10.282;2023-03-15T00:34:48;100307.44;;;7.20;70.35
20942;BME280;10630;53.734;10.282;2023-03-15T00:37:15;100309.69;;;7.15;71.25
20942;BME280;10630;53.734;10.282;2023-03-15T00:39:42;100309.25;;;6.29;73.01
20942;BME280;10630;53.734;10.282;2023-03-15T00:42:11;100305.13;;;6.99;71.67
20942;BME280;10630;53.734;10.282;2023-03-15T00:44:44;100309.06;;;6.58;71.75
20942;BME280;10630;53.734;10.282;2023-03-15T00:47:10;100314.81;;;6.72;71.79
20942;BME280;10630;53.734;10.282;2023-03-15T00:49:38;100312.44;;;7.05;71.34
20942;BME280;10630;53.734;10.282;2023-03-15T00:52:06;100313.22;;;6.79;71.61
20942;BME280;10630;53.734;10.282;2023-03-15T00:54:33;100312.31;;;7.33;69.57
20942;BME280;10630;53.734;10.282;2023-03-15T00:57:00;100319.31;;;7.42;68.56
20942;BME280;10630;53.734;10.282;2023-03-15T00:59:30;100313.03;;;7.17;68.97
20942;BME280;10630;53.734;10.282;2023-03-15T01:02:00;100320.44;;;7.13;70.77
20942;BME280;10630;53.734;10.282;2023-03-15T01:04:31;100320.94;;;7.35;68.50
20942;BME280;10630;53.734;10.282;2023-03-15T01:06:59;100315.84;;;7.15;68.88
20942;BME280;10630;53.734;10.282;2023-03-15T01:09:26;100320.50;;;7.74;67.67
20942;BME280;10630;53.734;10.282;2023-03-15T01:11:55;100323.72;;;7.07;68.67
20942;BME280;10630;53.734;10.282;2023-03-15T01:14:21;100324.91;;;6.94;70.06
20942;BME280;10630;53.734;10.282;2023-03-15T01:16:49;100328.44;;;6.59;69.95
20942;BME280;10630;53.734;10.282;2023-03-15T01:19:16;100333.06;;;7.45;70.37
20942;BME280;10630;53.734;10.282;2023-03-15T01:21:43;100337.22;;;7.48;68.38
20942;BME280;10630;53.734;10.282;2023-03-15T01:24:13;100339.88;;;7.48;68.57
20942;BME280;10630;53.734;10.282;2023-03-15T01:26:40;100338.44;;;7.09;67.78
20942;BME280;10630;53.734;10.282;2023-03-15T01:29:07;100345.03;;;6.87;69.95
20942;BME280;10630;53.734;10.282;2023-03-15T01:31:36;100351.38;;;6.12;73.58
20942;BME280;10630;53.734;10.282;2023-03-15T01:34:03;100352.59;;;6.64;74.96
20942;BME280;10630;53.734;10.282;2023-03-15T01:36:30;100355.56;;;6.97;72.55
20942;BME280;10630;53.734;10.282;2023-03-15T01:38:57;100356.97;;;7.54;68.64
20942;BME280;10630;53.734;10.282;2023-03-15T01:41:24;100347.84;;;7.83;66.87
20942;BME280;10630;53.734;10.282;2023-03-15T01:43:52;100351.38;;;7.31;67.39
20942;BME280;10630;53.734;10.282;2023-03-15T01:46:29;100355.75;;;7.66;67.20
20942;BME280;10630;53.734;10.282;2023-03-15T01:49:06;100350.31;;;7.23;67.71
20942;BME280;10630;53.734;10.282;2023-03-15T01:59:38;100368.09;;;7.13;71.31
20942;BME280;10630;53.734;10.282;2023-03-15T02:02:05;100374.81;;;7.52;69.82
20942;BME280;10630;53.734;10.282;2023-03-15T02:04:34;100376.00;;;7.31;69.06
20942;BME280;10630;53.734;10.282;2023-03-15T02:07:03;100390.44;;;6.64;71.45
20942;BME280;10630;53.734;10.282;2023-03-15T02:09:34;100393.34;;;7.52;69.64
20942;BME280;10630;53.734;10.282;2023-03-15T02:12:04;100397.03;;;7.77;67.51
20942;BME280;10630;53.734;10.282;2023-03-15T02:14:31;100402.31;;;7.77;66.82
20942;BME280;10630;53.734;10.282;2023-03-15T02:16:59;100401.66;;;7.31;67.06
20942;BME280;10630;53.734;10.282;2023-03-15T02:19:39;100409.28;;;6.97;70.71
20942;BME280;10630;53.734;10.282;2023-03-15T02:27:08;100414.03;;;6.58;67.95
20942;BME280;10630;53.734;10.282;2023-03-15T02:29:36;100411.78;;;7.80;68.38
20942;BME280;10630;53.734;10.282;2023-03-15T02:32:04;100409.88;;;7.45;67.44
20942;BME280;10630;53.734;10.282;2023-03-15T02:34:31;100415.28;;;7.88;68.19
20942;BME280;10630;53.734;10.282;2023-03-15T02:36:58;100415.47;;;7.87;67.23
20942;BME280;10630;53.734;10.282;2023-03-15T02:39:25;100424.84;;;7.55;67.16
20942;BME280;10630;53.734;10.282;2023-03-15T02:41:54;100437.50;;;7.43;68.95
20942;BME280;10630;53.734;10.282;2023-03-15T02:44:34;100437.41;;;7.35;69.22
20942;BME280;10630;53.734;10.282;2023-03-15T02:47:03;100433.09;;;7.52;68.53
20942;BME280;10630;53.734;10.282;2023-03-15T02:49:33;100435.59;;;7.53;68.66
20942;BME280;10630;53.734;10.282;2023-03-15T02:52:01;100433.56;;;7.29;68.97
20942;BME280;10630;53.734;10.282;2023-03-15T02:54:28;100442.53;;;6.26;71.31
20942;BME280;10630;53.734;10.282;2023-03-15T02:57:00;100445.44;;;7.07;73.44
20942;BME280;10630;53.734;10.282;2023-03-15T02:59:27;100439.94;;;6.54;72.54
20942;BME280;10630;53.734;10.282;2023-03-15T03:01:54;100453.75;;;7.12;71.70
20942;BME280;10630;53.734;10.282;2023-03-15T03:04:21;100463.28;;;7.41;70.67
20942;BME280;10630;53.734;10.282;2023-03-15T03:06:48;100470.16;;;7.34;68.58
20942;BME280;10630;53.734;10.282;2023-03-15T03:09:14;100477.34;;;7.59;68.11
20942;BME280;10630;53.734;10.282;2023-03-15T03:11:42;100489.84;;;6.57;71.35
20942;BME280;10630;53.734;10.282;2023-03-15T03:14:11;100494.00;;;6.32;72.20
20942;BME280;10630;53.734;10.282;2023-03-15T03:16:41;100505.50;;;6.51;75.23
20942;BME280;10630;53.734;10.282;2023-03-15T03:19:10;100505.28;;;6.90;75.86
20942;BME280;10630;53.734;10.282;2023-03-15T03:21:39;100522.44;;;6.86;73.80
20942;BME280;10630;53.734;10.282;2023-03-15T03:24:09;100521.41;;;6.96;76.46
20942;BME280;10630;53.734;10.282;2023-03-15T03:26:37;100519.94;;;7.30;73.71
20942;BME280;10630;53.734;10.282;2023-03-15T03:29:05;100519.59;;;6.69;72.36
20942;BME280;10630;53.734;10.282;2023-03-15T03:31:33;100518.69;;;7.34;75.10
20942;BME280;10630;53.734;10.282;2023-03-15T03:34:00;100529.50;;;6.95;73.06
20942;BME280;10630;53.734;10.282;2023-03-15T03:36:28;100532.88;;;6.59;74.17
20942;BME280;10630;53.734;10.282;2023-03-15T03:38:54;100537.09;;;7.08;75.06
20942;BME280;10630;53.734;10.282;2023-03-15T03:41:22;100539.69;;;7.36;72.89
20942;BME280;10630;53.734;10.282;2023-03-15T03:43:49;100537.28;;;8.49;68.89
20942;BME280;10630;53.734;10.282;2023-03-15T03:46:17;100532.13;;;8.74;65.53
20942;BME280;10630;53.734;10.282;2023-03-15T03:48:44;100548.13;;;8.56;64.31
20942;BME280;10630;53.734;10.282;2023-03-15T03:51:12;100549.31;;;8.70;63.97
20942;BME280;10630;53.734;10.282;2023-03-15T03:53:40;100551.19;;;8.78;63.46
20942;BME280;10630;53.734;10.282;2023-03-15T03:56:08;100555.81;;;8.76;63.46
20942;BME280;10630;53.734;10.282;2023-03-15T03:58:37;100564.63;;;8.23;63.33
20942;BME280;10630;53.734;10.282;2023-03-15T04:01:03;100568.31;;;7.50;64.91
20942;BME280;10630;53.734;10.282;2023-03-15T04:03:30;100574.50;;;8.13;67.34
20942;BME280;10630;53.734;10.282;2023-03-15T04:05:57;100571.88;;;7.77;65.74
20942;BME280;10630;53.734;10.282;2023-03-15T04:08:25;100583.50;;;8.20;66.78
20942;BME280;10630;53.734;10.282;2023-03-15T04:10:52;100579.56;;;8.51;65.12
20942;BME280;10630;53.734;10.282;2023-03-15T04:13:20;100584.84;;;8.69;64.40
20942;BME280;10630;53.734;10.282;2023-03-15T04:15:47;100548.88;;;8.22;64.64
20942;BME280;10630;53.734;10.282;2023-03-15T04:18:13;100596.63;;;8.75;64.19
20942;BME280;10630;53.734;10.282;2023-03-15T04:20:40;100599.44;;;7.20;65.16
20942;BME280;10630;53.734;10.282;2023-03-15T04:23:12;100587.84;;;7.85;68.52
20942;BME280;10630;53.734;10.282;2023-03-15T04:25:41;100587.22;;;8.54;65.78
20942;BME280;10630;53.734;10.282;2023-03-15T04:28:08;100571.41;;;8.70;63.99
20942;BME280;10630;53.734;10.282;2023-03-15T04:30:36;100579.84;;;8.66;64.48
20942;BME280;10630;53.734;10.282;2023-03-15T04:33:02;100582.63;;;8.38;64.15
20942;BME280;10630;53.734;10.282;2023-03-15T04:35:33;100588.53;;;8.76;63.18
20942;BME280;10630;53.734;10.282;2023-03-15T04:38:01;100582.13;;;8.61;62.30
20942;BME280;10630;53.734;10.282;2023-03-15T04:40:29;100583.75;;;8.35;62.62
20942;BME280;10630;53.734;10.282;2023-03-15T04:43:03;100587.25;;;8.36;62.87
20942;BME280;10630;53.734;10.282;2023-03-15T04:45:31;100586.88;;;8.31;63.60
20942;BME280;10630;53.734;10.282;2023-03-15T04:48:00;100602.06;;;8.20;63.27
20942;BME280;10630;53.734;10.282;2023-03-15T04:50:29;100604.09;;;8.08;63.43
20942;BME280;10630;53.734;10.282;2023-03-15T04:52:56;100613.41;;;8.31;63.01
20942;BME280;10630;53.734;10.282;2023-03-15T04:55:23;100617.09;;;8.20;62.52
20942;BME280;10630;53.734;10.282;2023-03-15T04:57:49;100619.09;;;8.18;63.04
20942;BME280;10630;53.734;10.282;2023-03-15T05:00:16;100615.44;;;8.37;62.00
20942;BME280;10630;53.734;10.282;2023-03-15T05:02:44;100618.00;;;7.84;63.20
20942;BME280;10630;53.734;10.282;2023-03-15T05:05:20;100617.38;;;7.54;64.12
20942;BME280;10630;53.734;10.282;2023-03-15T05:07:49;100620.31;;;7.87;63.92
20942;BME280;10630;53.734;10.282;2023-03-15T05:10:17;100616.06;;;7.76;64.36
20942;BME280;10630;53.734;10.282;2023-03-15T05:12:44;100621.16;;;7.70;64.30
20942;BME280;10630;53.734;10.282;2023-03-15T05:15:11;100625.59;;;7.51;64.83
20942;BME280;10630;53.734;10.282;2023-03-15T05:17:38;100632.09;;;7.39;65.52
20942;BME280;10630;53.734;10.282;2023-03-15T05:20:05;100634.91;;;7.55;65.48
20942;BME280;10630;53.734;10.282;2023-03-15T05:22:39;100639.31;;;7.65;65.31
20942;BME280;10630;53.734;10.282;2023-03-15T05:25:07;100646.03;;;7.59;64.75
20942;BME280;10630;53.734;10.282;2023-03-15T05:27:34;100651.03;;;7.62;64.93
20942;BME280;10630;53.734;10.282;2023-03-15T05:30:02;100662.38;;;7.26;65.38
20942;BME280;10630;53.734;10.282;2023-03-15T05:32:30;100677.28;;;7.55;65.21
20942;BME280;10630;53.734;10.282;2023-03-15T05:35:01;100672.03;;;7.45;64.57
20942;BME280;10630;53.734;10.282;2023-03-15T05:37:29;100671.56;;;7.78;63.96
20942;BME280;10630;53.734;10.282;2023-03-15T05:39:58;100679.06;;;7.37;65.04
20942;BME280;10630;53.734;10.282;2023-03-15T05:42:28;100679.25;;;7.53;65.54
20942;BME280;10630;53.734;10.282;2023-03-15T05:44:55;100697.44;;;7.01;65.42
20942;BME280;10630;53.734;10.282;2023-03-15T05:47:22;100698.34;;;7.47;65.65
20942;BME280;10630;53.734;10.282;2023-03-15T05:49:49;100716.41;;;6.86;68.20
20942;BME280;10630;53.734;10.282;2023-03-15T05:52:16;100714.72;;;7.33;68.53
20942;BME280;10630;53.734;10.282;2023-03-15T05:54:44;100715.78;;;7.12;68.29
20942;BME280;10630;53.734;10.282;2023-03-15T05:57:11;100724.00;;;7.09;71.03
20942;BME280;10630;53.734;10.282;2023-03-15T05:59:39;100731.81;;;7.10;68.06
20942;BME280;10630;53.734;10.282;2023-03-15T06:02:08;100727.72;;;6.69;71.12
20942;BME280;10630;53.734;10.282;2023-03-15T06:04:37;100741.91;;;6.48;72.67
20942;BME280;10630;53.734;10.282;2023-03-15T06:07:05;100739.25;;;7.35;70.80
20942;BME280;10630;53.734;10.282;2023-03-15T06:09:32;100746.88;;;7.48;70.22
20942;BME280;10630;53.734;10.282;2023-03-15T06:11:58;100759.84;;;7.03;70.66
20942;BME280;10630;53.734;10.282;2023-03-15T06:14:26;100763.91;;;6.78;71.73
20942;BME280;10630;53.734;10.282;2023-03-15T06:16:53;100763.56;;;7.20;73.71
20942;BME280;10630;53.734;10.282;2023-03-15T06:19:21;100758.13;;;7.59;71.86
20942;BME280;10630;53.734;10.282;2023-03-15T06:21:48;100770.53;;;7.87;70.09
20942;BME280;10630;53.734;10.282;2023-03-15T06:24:17;100768.03;;;7.10;69.57
20942;BME280;10630;53.734;10.282;2023-03-15T06:26:44;100766.88;;;7.70;70.58
20942;BME280;10630;53.734;10.282;2023-03-15T06:29:11;100772.84;;;7.72;70.42
20942;BME280;10630;53.734;10.282;2023-03-15T06:31:37;100770.94;;;7.64;70.13
20942;BME280;10630;53.734;10.282;2023-03-15T06:34:04;100774.59;;;8.09;69.04
20942;BME280;10630;53.734;10.282;2023-03-15T06:36:31;100782.06;;;8.23;68.78
20942;BME280;10630;53.734;10.282;2023-03-15T06:38:58;100785.41;;;7.70;68.58
20942;BME280;10630;53.734;10.282;2023-03-15T06:41:28;100793.41;;;8.34;68.35
20942;BME280;10630;53.734;10.282;2023-03-15T06:43:54;100792.34;;;8.27;67.73
20942;BME280;10630;53.734;10.282;2023-03-15T06:46:21;100790.66;;;8.26;67.07
20942;BME280;10630;53.734;10.282;2023-03-15T06:48:48;100787.25;;;7.87;68.31
20942;BME280;10630;53.734;10.282;2023-03-15T06:51:15;100804.78;;;8.26;68.99
20942;BME280;10630;53.734;10.282;2023-03-15T06:53:42;100799.50;;;8.44;68.19
20942;BME280;10630;53.734;10.282;2023-03-15T06:56:10;100803.69;;;8.47;68.30
20942;BME280;10630;53.734;10.282;2023-03-15T06:58:38;100818.63;;;8.48;68.38
20942;BME280;10630;53.734;10.282;2023-03-15T07:01:05;100802.72;;;8.66;67.80
20942;BME280;10630;53.734;10.282;2023-03-15T07:03:33;100808.91;;;9.37;66.65
20942;BME280;10630;53.734;10.282;2023-03-15T07:06:00;100811.28;;;8.78;65.77
20942;BME280;10630;53.734;10.282;2023-03-15T07:08:26;100813.16;;;8.85;68.03
20942;BME280;10630;53.734;10.282;2023-03-15T07:10:53;100816.97;;;9.54;67.07
20942;BME280;10630;53.734;10.282;2023-03-15T07:13:21;100820.59;;;9.53;65.54
20942;BME280;10630;53.734;10.282;2023-03-15T07:15:52;100827.25;;;9.57;66.46
20942;BME280;10630;53.734;10.282;2023-03-15T07:18:19;100832.38;;;9.76;67.08
20942;BME280;10630;53.734;10.282;2023-03-15T07:20:46;100861.16;;;8.74;67.42
20942;BME280;10630;53.734;10.282;2023-03-15T07:23:14;100882.75;;;8.79;68.32
20942;BME280;10630;53.734;10.282;2023-03-15T07:25:41;100906.06;;;8.02;70.09
20942;BME280;10630;53.734;10.282;2023-03-15T07:28:20;100924.63;;;7.35;71.74
20942;BME280;10630;53.734;10.282;2023-03-15T07:33:19;100927.28;;;5.41;79.60
20942;BME280;10630;53.734;10.282;2023-03-15T07:35:48;100920.88;;;6.38;80.77
20942;BME280;10630;53.734;10.282;2023-03-15T07:38:15;100926.56;;;6.33;77.91
20942;BME280;10630;53.734;10.282;2023-03-15T07:40:42;100927.66;;;6.81;75.63
20942;BME280;10630;53.734;10.282;2023-03-15T07:43:09;100923.63;;;8.03;72.57
20942;BME280;10630;53.734;10.282;2023-03-15T07:45:35;100920.72;;;8.34;68.04
20942;BME280;10630;53.734;10.282;2023-03-15T07:48:02;100917.81;;;7.89;67.52
20942;BME280;10630;53.734;10.282;2023-03-15T07:50:29;100914.22;;;7.81;69.30
20942;BME280;10630;53.734;10.282;2023-03-15T07:52:56;100905.81;;;8.61;67.47
20942;BME280;10630;53.734;10.282;2023-03-15T07:55:22;100898.84;;;8.60;66.64
20942;BME280;10630;53.734;10.282;2023-03-15T07:57:49;100903.88;;;8.99;65.75
20942;BME280;10630;53.734;10.282;2023-03-15T08:00:18;100907.50;;;8.98;64.57
20942;BME280;10630;53.734;10.282;2023-03-15T08:02:46;100908.66;;;8.77;65.34
20942;BME280;10630;53.734;10.282;2023-03-15T08:05:14;100909.09;;;9.09;64.22
20942;BME280;10630;53.734;10.282;2023-03-15T08:07:45;100906.19;;;9.02;64.00
20942;BME280;10630;53.734;10.282;2023-03-15T08:10:12;100897.41;;;8.65;63.33
20942;BME280;10630;53.734;10.282;2023-03-15T08:12:41;100904.41;;;8.84;64.03
20942;BME280;10630;53.734;10.282;2023-03-15T08:15:09;100910.00;;;8.81;63.79
20942;BME280;10630;53.734;10.282;2023-03-15T08:17:36;100909.09;;;8.91;63.80
20942;BME280;10630;53.734;10.282;2023-03-15T08:20:05;100908.16;;;8.64;65.70
20942;BME280;10630;53.734;10.282;2023-03-15T08:22:33;100909.31;;;8.97;65.14
20942;BME280;10630;53.734;10.282;2023-03-15T08:25:03;100913.63;;;8.62;65.62
20942;BME280;10630;53.734;10.282;2023-03-15T08:27:29;100919.66;;;8.54;67.74
20942;BME280;10630;53.734;10.282;2023-03-15T08:29:56;100915.44;;;8.62;68.68
20942;BME280;10630;53.734;10.282;2023-03-15T08:32:23;100915.69;;;8.86;67.70
20942;BME280;10630;53.734;10.282;2023-03-15T08:34:50;100914.91;;;8.58;68.57
20942;BME280;10630;53.734;10.282;2023-03-15T08:37:18;100917.28;;;8.97;68.42
20942;BME280;10630;53.734;10.282;2023-03-15T08:39:45;100921.28;;;9.38;67.79
20942;BME280;10630;53.734;10.282;2023-03-15T08:42:12;100928.81;;;9.24;66.80
20942;BME280;10630;53.734;10.282;2023-03-15T08:44:39;100938.81;;;8.76;67.96
20942;BME280;10630;53.734;10.282;2023-03-15T08:47:05;100933.53;;;9.12;69.02
20942;BME280;10630;53.734;10.282;2023-03-15T08:49:33;100925.59;;;9.39;67.14
20942;BME280;10630;53.734;10.282;2023-03-15T08:52:00;100933.38;;;9.76;67.01
20942;BME280;10630;53.734;10.282;2023-03-15T08:54:27;100943.56;;;9.89;65.70
20942;BME280;10630;53.734;10.282;2023-03-15T08:56:53;100958.03;;;9.42;67.61
20942;BME280;10630;53.734;10.282;2023-03-15T08:59:20;100971.34;;;9.95;67.04
20942;BME280;10630;53.734;10.282;2023-03-15T09:01:58;100960.72;;;9.95;66.90
20942;BME280;10630;53.734;10.282;2023-03-15T09:04:25;100965.06;;;10.30;65.27
20942;BME280;10630;53.734;10.282;2023-03-15T09:06:52;100972.56;;;10.61;65.71
20942;BME280;10630;53.734;10.282;2023-03-15T09:09:19;100997.88;;;9.87;64.87
20942;BME280;10630;53.734;10.282;2023-03-15T09:11:45;101001.84;;;10.61;64.32
20942;BME280;10630;53.734;10.282;2023-03-15T09:14:12;101014.41;;;9.00;63.71
20942;BME280;10630;53.734;10.282;2023-03-15T09:16:39;101017.63;;;8.18;68.34
20942;BME280;10630;53.734;10.282;2023-03-15T09:19:06;101027.53;;;8.16;69.00
20942;BME280;10630;53.734;10.282;2023-03-15T09:21:32;101015.03;;;8.84;68.14
20942;BME280;10630;53.734;10.282;2023-03-15T09:23:59;101009.19;;;9.26;67.10
20942;BME280;10630;53.734;10.282;2023-03-15T09:26:26;101009.75;;;9.02;65.32
20942;BME280;10630;53.734;10.282;2023-03-15T09:28:54;101017.38;;;8.02;69.04
20942;BME280;10630;53.734;10.282;2023-03-15T09:31:21;101017.56;;;8.48;68.64
20942;BME280;10630;53.734;10.282;2023-03-15T09:33:50;101024.44;;;8.31;69.23
20942;BME280;10630;53.734;10.282;2023-03-15T09:36:17;101010.91;;;9.35;67.24
20942;BME280;10630;53.734;10.282;2023-03-15T09:38:47;101026.34;;;8.48;67.43
20942;BME280;10630;53.734;10.282;2023-03-15T09:46:31;101026.94;;;9.26;67.18
20942;BME280;10630;53.734;10.282;2023-03-15T09:49:01;101018.53;;;9.93;66.16
20942;BME280;10630;53.734;10.282;2023-03-15T09:54:02;101014.72;;;9.69;66.63
20942;BME280;10630;53.734;10.282;2023-03-15T09:59:03;101024.50;;;8.59;70.16
20942;BME280;10630;53.734;10.282;2023-03-15T10:01:33;101019.25;;;9.77;69.77
20942;BME280;10630;53.734;10.282;2023-03-15T10:04:03;101010.94;;;9.98;70.06
20942;BME280;10630;53.734;10.282;2023-03-15T10:06:33;101019.53;;;9.74;68.91
20942;BME280;10630;53.734;10.282;2023-03-15T10:09:05;101018.69;;;10.18;68.54
20942;BME280;10630;53.734;10.282;2023-03-15T10:17:10;101026.56;;;8.93;70.13
20942;BME280;10630;53.734;10.282;2023-03-15T10:22:22;101020.69;;;11.44;66.78
20942;BME280;10630;53.734;10.282;2023-03-15T10:24:56;101027.03;;;10.75;64.17
20942;BME280;10630;53.734;10.282;2023-03-15T10:27:31;101016.25;;;10.51;64.67
20942;BME280;10630;53.734;10.282;2023-03-15T10:29:59;101018.50;;;9.48;67.82
20942;BME280;10630;53.734;10.282;2023-03-15T10:32:39;101017.69;;;10.37;66.27
20942;BME280;10630;53.734;10.282;2023-03-15T10:35:18;101026.84;;;11.36;64.59
20942;BME280;10630;53.734;10.282;2023-03-15T10:37:54;101037.25;;;10.09;65.24
20942;BME280;10630;53.734;10.282;2023-03-15T10:40:44;101026.56;;;10.27;66.71
20942;BME280;10630;53.734;10.282;2023-03-15T10:45:47;101022.28;;;10.53;67.00
20942;BME280;10630;53.734;10.282;2023-03-15T10:48:24;101027.44;;;10.54;67.98
20942;BME280;10630;53.734;10.282;2023-03-15T10:50:54;101029.03;;;10.21;70.43
20942;BME280;10630;53.734;10.282;2023-03-15T10:53:24;101028.72;;;10.93;68.47
20942;BME280;10630;53.734;10.282;2023-03-15T10:56:00;101035.19;;;10.48;66.32
20942;BME280;10630;53.734;10.282;2023-03-15T10:58:29;101033.41;;;10.91;65.59
20942;BME280;10630;53.734;10.282;2023-03-15T11:01:05;101034.66;;;10.79;65.48
20942;BME280;10630;53.734;10.282;2023-03-15T11:03:37;101026.44;;;10.98;65.23
20942;BME280;10630;53.734;10.282;2023-03-15T11:06:17;101033.97;;;11.28;66.39
20942;BME280;10630;53.734;10.282;2023-03-15T11:08:44;101031.88;;;11.64;63.34
20942;BME280;10630;53.734;10.282;2023-03-15T11:11:11;101037.19;;;12.22;62.62
20942;BME280;10630;53.734;10.282;2023-03-15T11:13:40;101045.19;;;11.89;62.57
20942;BME280;10630;53.734;10.282;2023-03-15T11:18:53;101046.81;;;12.48;61.36
20942;BME280;10630;53.734;10.282;2023-03-15T11:21:22;101050.84;;;11.86;60.09
20942;BME280;10630;53.734;10.282;2023-03-15T11:23:49;101055.41;;;12.10;60.68
20942;BME280;10630;53.734;10.282;2023-03-15T11:26:18;101049.00;;;12.36;61.86
20942;BME280;10630;53.734;10.282;2023-03-15T11:29:06;101049.44;;;12.56;60.53
20942;BME280;10630;53.734;10.282;2023-03-15T11:31:38;101039.69;;;12.80;59.07
20942;BME280;10630;53.734;10.282;2023-03-15T11:34:07;101051.66;;;12.84;56.91
20942;BME280;10630;53.734;10.282;2023-03-15T11:36:36;101056.19;;;12.27;57.09
20942;BME280;10630;53.734;10.282;2023-03-15T11:39:05;101064.13;;;9.62;56.69
20942;BME280;10630;53.734;10.282;2023-03-15T11:41:35;101058.34;;;10.29;59.05
20942;BME280;10630;53.734;10.282;2023-03-15T11:46:42;101058.72;;;10.60;58.28
20942;BME280;10630;53.734;10.282;2023-03-15T11:51:38;101053.88;;;12.72;56.29
20942;BME280;10630;53.734;10.282;2023-03-15T11:59:14;101098.88;;;10.05;56.42
20942;BME280;10630;53.734;10.282;2023-03-15T12:01:44;101088.59;;;10.28;60.05
20942;BME280;10630;53.734;10.282;2023-03-15T12:06:58;101098.53;;;10.00;59.71
20942;BME280;10630;53.734;10.282;2023-03-15T12:12:05;101101.75;;;8.36;61.87
20942;BME280;10630;53.734;10.282;2023-03-15T12:25:14;101099.50;;;10.69;60.81
20942;BME280;10630;53.734;10.282;2023-03-15T12:27:44;101106.59;;;9.90;60.06
20942;BME280;10630;53.734;10.282;2023-03-15T12:30:20;101101.28;;;9.72;59.30
20942;BME280;10630;53.734;10.282;2023-03-15T12:32:49;101103.09;;;9.07;60.63
20942;BME280;10630;53.734;10.282;2023-03-15T12:35:18;101096.72;;;10.44;58.51
20942;BME280;10630;53.734;10.282;2023-03-15T12:37:47;101101.38;;;10.24;59.28
20942;BME280;10630;53.734;10.282;2023-03-15T12:53:03;101096.84;;;12.46;54.64
20942;BME280;10630;53.734;10.282;2023-03-15T12:55:32;101100.03;;;10.99;53.84
20942;BME280;10630;53.734;10.282;2023-03-15T12:58:00;101108.53;;;11.11;55.05
20942;BME280;10630;53.734;10.282;2023-03-15T13:00:29;101104.31;;;11.00;54.62
20942;BME280;10630;53.734;10.282;2023-03-15T13:03:06;101117.59;;;9.95;55.15
20942;BME280;10630;53.734;10.282;2023-03-15T13:05:49;101120.31;;;10.03;56.73
20942;BME280;10630;53.734;10.282;2023-03-15T13:08:30;101132.75;;;9.48;56.68
20942;BME280;10630;53.734;10.282;2023-03-15T13:16:35;101169.03;;;8.45;60.87
20942;BME280;10630;53.734;10.282;2023-03-15T13:21:58;101143.78;;;8.31;65.59
20942;BME280;10630;53.734;10.282;2023-03-15T13:27:05;101146.72;;;7.79;64.87
20942;BME280;10630;53.734;10.282;2023-03-15T13:29:33;101136.53;;;8.52;63.29
20942;BME280;10630;53.734;10.282;2023-03-15T13:32:01;101134.59;;;9.20;62.70
20942;BME280;10630;53.734;10.282;2023-03-15T13:34:32;101146.75;;;8.85;62.50
20942;BME280;10630;53.734;10.282;2023-03-15T13:37:00;101143.25;;;7.88;65.53
20942;BME280;10630;53.734;10.282;2023-03-15T13:39:30;101153.81;;;7.78;68.60
20942;BME280;10630;53.734;10.282;2023-03-15T13:44:24;101148.09;;;8.32;66.25
20942;BME280;10630;53.734;10.282;2023-03-15T13:46:51;101147.97;;;8.14;67.62
20942;BME280;10630;53.734;10.282;2023-03-15T13:49:19;101150.72;;;9.37;67.00
20942;BME280;10630;53.734;10.282;2023-03-15T13:51:49;101143.84;;;9.62;63.93
20942;BME280;10630;53.734;10.282;2023-03-15T13:54:19;101139.84;;;10.12;64.54
20942;BME280;10630;53.734;10.282;2023-03-15T13:56:53;101139.91;;;10.20;64.47
20942;BME280;10630;53.734;10.282;2023-03-15T13:59:26;101138.16;;;9.57;62.80
20942;BME280;10630;53.734;10.282;2023-03-15T14:01:58;101153.00;;;8.46;68.42
20942;BME280;10630;53.734;10.282;2023-03-15T14:04:25;101164.88;;;7.93;73.46
20942;BME280;10630;53.734;10.282;2023-03-15T14:07:01;101162.75;;;6.86;78.74
20942;BME280;10630;53.734;10.282;2023-03-15T14:09:29;101162.75;;;8.16;79.94
20942;BME280;10630;53.734;10.282;2023-03-15T14:12:04;101170.56;;;7.79;79.90
20942;BME280;10630;53.734;10.282;2023-03-15T14:14:34;101161.09;;;7.96;80.10
20942;BME280;10630;53.734;10.282;2023-03-15T14:17:05;101165.13;;;8.59;76.52
20942;BME280;10630;53.734;10.282;2023-03-15T14:19:34;101184.53;;;8.39;74.22
20942;BME280;10630;53.734;10.282;2023-03-15T14:22:12;101196.00;;;7.09;74.73
20942;BME280;10630;53.734;10.282;2023-03-15T14:24:41;101210.31;;;6.55;76.55
20942;BME280;10630;53.734;10.282;2023-03-15T14:29:59;101204.31;;;6.31;80.93